Time;durP1;ratioP1;P1;durP2;ratioP2;P2;SDS_P1;SDS_P2;PMS_P1;PMS_P2;Temp;Humidity;BMP_temperature;BMP_pressure;BME280_temperature;BME280_humidity;BME280_pressure;Samples;Min_cycle;Max_cycle;Signal;HPM_P1;HPM_P2
2021/05/12 00:01:12;;;;;;;3.55;1.60;;;18.40;73.30;;;;;;5074265;28;20104;-70
2021/05/12 00:03:38;;;;;;;3.55;1.88;;;18.30;73.50;;;;;;5056433;28;20465;-70
2021/05/12 00:06:04;;;;;;;4.82;1.58;;;18.20;74.10;;;;;;5074395;28;20025;-70
2021/05/12 00:08:30;;;;;;;2.15;1.83;;;18.20;74.30;;;;;;5074388;28;20396;-70
2021/05/12 00:10:57;;;;;;;2.17;1.70;;;18.20;74.50;;;;;;5074076;28;20500;-70
2021/05/12 00:13:23;;;;;;;6.07;4.18;;;18.10;75.10;;;;;;5074239;28;20473;-69
2021/05/12 00:15:49;;;;;;;2.85;2.20;;;18.10;75.50;;;;;;5074206;28;20031;-70
2021/05/12 00:18:21;;;;;;;6.25;2.00;;;18.00;75.40;;;;;;5074188;28;20103;-71
2021/05/12 00:20:47;;;;;;;2.58;1.83;;;18.00;75.90;;;;;;5073903;28;20428;-71
2021/05/12 00:23:17;;;;;;;2.75;1.65;;;18.00;76.50;;;;;;5074007;28;20024;-69
2021/05/12 00:25:43;;;;;;;1.63;1.52;;;17.90;76.20;;;;;;5056019;28;20032;-70
2021/05/12 00:28:09;;;;;;;4.88;2.17;;;17.90;76.10;;;;;;5056075;28;20029;-70
2021/05/12 00:30:35;;;;;;;3.40;1.73;;;17.90;76.30;;;;;;5073920;28;20024;-69
2021/05/12 00:33:01;;;;;;;3.22;2.00;;;17.80;76.70;;;;;;5073888;28;20423;-70
2021/05/12 00:35:27;;;;;;;6.32;3.63;;;17.80;76.90;;;;;;5073853;28;20024;-70
2021/05/12 00:37:53;;;;;;;10.02;4.75;;;17.80;76.90;;;;;;5073850;28;20029;-70
2021/05/12 00:40:19;;;;;;;8.05;3.90;;;17.80;77.00;;;;;;5073772;28;20028;-70
2021/05/12 00:42:45;;;;;;;6.63;3.00;;;17.80;77.30;;;;;;5055774;28;20090;-70
2021/05/12 00:45:14;;;;;;;3.72;2.38;;;17.80;77.20;;;;;;5073515;28;20054;-72
2021/05/12 00:47:41;;;;;;;26.35;12.50;;;17.80;76.40;;;;;;5055712;28;20416;-70
2021/05/12 00:50:09;;;;;;;38.78;18.20;;;17.80;77.00;;;;;;5055517;28;20031;-69
2021/05/12 00:52:35;;;;;;;27.75;15.85;;;17.80;77.10;;;;;;5073385;28;20029;-70
2021/05/12 00:55:01;;;;;;;11.77;6.47;;;17.80;77.30;;;;;;5055560;28;20381;-68
2021/05/12 00:57:27;;;;;;;7.95;4.68;;;17.80;76.90;;;;;;5073482;28;20032;-69
2021/05/12 00:59:53;;;;;;;7.70;4.07;;;17.70;76.30;;;;;;5055373;28;20166;-70
2021/05/12 01:02:19;;;;;;;6.22;2.20;;;17.70;76.20;;;;;;5073493;28;20047;-70
2021/05/12 01:04:46;;;;;;;2.20;1.95;;;17.80;75.50;;;;;;5055261;28;20032;-70
2021/05/12 01:07:12;;;;;;;4.72;1.60;;;17.80;75.60;;;;;;5073314;28;20032;-69
2021/05/12 01:09:37;;;;;;;1.88;1.45;;;17.70;75.20;;;;;;5073006;28;20047;-69
2021/05/12 01:12:04;;;;;;;3.53;2.10;;;17.80;75.80;;;;;;5073255;28;20028;-69
2021/05/12 01:14:31;;;;;;;3.63;2.10;;;17.80;75.60;;;;;;5073255;28;20041;-69
2021/05/12 01:16:56;;;;;;;5.57;2.15;;;17.80;75.70;;;;;;5055181;28;20465;-70
2021/05/12 01:19:22;;;;;;;3.72;2.53;;;17.80;77.30;;;;;;5055193;28;20052;-69
2021/05/12 01:21:49;;;;;;;7.95;2.92;;;;;;;;;;5055124;28;20035;-70
2021/05/12 01:24:15;;;;;;;5.75;4.22;;;;;;;;;;5073044;28;20033;-69
2021/05/12 01:26:41;;;;;;;8.07;5.45;;;;;;;;;;5073335;28;20081;-70
2021/05/12 01:29:08;;;;;;;15.43;7.30;;;17.60;78.10;;;;;;5073150;28;20020;-70
2021/05/12 01:31:44;;;;;;;11.85;8.05;;;17.50;79.20;;;;;;5072703;28;20380;-70
2021/05/12 01:34:15;;;;;;;12.00;7.68;;;17.50;80.10;;;;;;5073052;28;20044;-70
2021/05/12 01:36:42;;;;;;;10.80;6.70;;;17.40;79.70;;;;;;5073020;28;20029;-68
2021/05/12 01:39:09;;;;;;;7.95;3.90;;;17.40;80.10;;;;;;5072690;28;20478;-68
2021/05/12 01:41:36;;;;;;;3.38;2.08;;;17.40;79.40;;;;;;5073219;28;20464;-69
2021/05/12 01:44:11;;;;;;;2.00;1.83;;;17.30;77.50;;;;;;5054845;28;20071;-69
2021/05/12 01:46:39;;;;;;;1.70;1.52;;;17.30;77.60;;;;;;5072986;28;20024;-69
2021/05/12 01:49:06;;;;;;;3.17;1.55;;;17.40;77.80;;;;;;5072955;28;20029;-69
2021/05/12 01:51:34;;;;;;;4.28;1.85;;;17.30;78.10;;;;;;5072848;28;20051;-69
2021/05/12 01:53:59;;;;;;;23.95;2.95;;;17.30;78.10;;;;;;5073160;28;20032;-69
2021/05/12 01:56:25;;;;;;;2.78;1.73;;;17.30;78.50;;;;;;5072817;28;20175;-69
2021/05/12 01:58:52;;;;;;;2.25;1.92;;;17.30;78.30;;;;;;5072563;28;20025;-69
2021/05/12 02:01:17;;;;;;;3.35;1.65;;;17.30;78.80;;;;;;5072786;28;20028;-69
2021/05/12 02:03:43;;;;;;;2.55;1.77;;;17.20;78.70;;;;;;5073645;28;20159;-69
2021/05/12 02:06:09;;;;;;;2.42;1.92;;;17.20;78.80;;;;;;5076719;28;20070;-69
2021/05/12 02:08:35;;;;;;;6.05;2.10;;;17.10;81.30;;;;;;5058721;28;20111;-70
2021/05/12 02:11:03;;;;;;;5.63;1.90;;;17.00;81.70;;;;;;5076648;28;20060;-69
2021/05/12 02:13:31;;;;;;;3.08;2.10;;;16.90;81.40;;;;;;5076304;28;20101;-71
2021/05/12 02:15:59;;;;;;;2.60;2.20;;;16.80;81.40;;;;;;5076554;28;20028;-69
2021/05/12 02:18:25;;;;;;;2.40;1.80;;;16.70;81.60;;;;;;5058569;28;20051;-69
2021/05/12 02:20:51;;;;;;;3.05;1.83;;;16.70;81.70;;;;;;5058479;28;20056;-69
2021/05/12 02:23:18;;;;;;;2.05;1.85;;;16.70;81.80;;;;;;5076342;28;20040;-69
2021/05/12 02:25:44;;;;;;;4.10;2.22;;;16.70;83.20;;;;;;5076065;28;20025;-68
2021/05/12 02:28:11;;;;;;;3.08;1.67;;;16.60;82.50;;;;;;5076286;28;20043;-69
2021/05/12 02:30:38;;;;;;;2.65;1.92;;;16.40;82.60;;;;;;5076537;28;20056;-69
2021/05/12 02:33:05;;;;;;;4.30;2.33;;;16.40;83.70;;;;;;5076202;28;20107;-69
2021/05/12 02:35:32;;;;;;;13.88;2.80;;;16.40;83.60;;;;;;5076467;28;20082;-69
2021/05/12 02:37:58;;;;;;;7.30;2.33;;;16.40;83.90;;;;;;5058373;28;20415;-68
2021/05/12 02:40:24;;;;;;;7.47;2.55;;;16.40;84.80;;;;;;5076068;28;20028;-68
2021/05/12 02:42:52;;;;;;;4.60;2.90;;;16.20;85.60;;;;;;5075978;28;20115;-69
2021/05/12 02:45:18;;;;;;;4.80;2.60;;;16.20;85.10;;;;;;5075979;28;20038;-69
2021/05/12 02:47:57;;;;;;;5.57;2.70;;;16.20;85.90;;;;;;5076091;28;20129;-69
2021/05/12 02:50:45;;;;;;;3.75;2.40;;;16.20;85.70;;;;;;5058011;28;20457;-69
2021/05/12 02:53:12;;;;;;;4.75;2.55;;;16.20;86.50;;;;;;5075687;28;20408;-69
2021/05/12 02:55:39;;;;;;;3.58;2.58;;;16.10;86.50;;;;;;5075887;28;20119;-69
2021/05/12 02:58:06;;;;;;;4.80;2.65;;;16.10;87.60;;;;;;5075837;28;20020;-69
2021/05/12 03:00:33;;;;;;;3.45;2.72;;;16.00;87.50;;;;;;5057729;28;20039;-69
2021/05/12 03:02:59;;;;;;;7.78;3.08;;;15.90;87.70;;;;;;5057804;28;20428;-69
2021/05/12 03:05:25;;;;;;;3.63;2.58;;;15.90;87.50;;;;;;5075615;28;20041;-69
2021/05/12 03:07:52;;;;;;;3.95;2.58;;;15.90;88.80;;;;;;5057658;28;20118;-69
2021/05/12 03:10:20;;;;;;;6.45;2.63;;;15.90;88.90;;;;;;5075228;28;20052;-70
2021/05/12 03:12:47;;;;;;;7.30;2.60;;;15.80;89.60;;;;;;5075496;28;20029;-69
2021/05/12 03:15:16;;;;;;;4.13;2.72;;;15.80;90.20;;;;;;5074128;28;20107;-69
2021/05/12 03:17:42;;;;;;;5.75;3.20;;;15.80;90.70;;;;;;5057355;28;20030;-71
2021/05/12 03:20:09;;;;;;;3.60;2.80;;;15.70;90.60;;;;;;5057407;28;20036;-69
2021/05/12 03:22:35;;;;;;;4.40;2.88;;;15.60;91.40;;;;;;5075323;28;20041;-68
2021/05/12 03:25:01;;;;;;;3.15;2.80;;;15.60;91.10;;;;;;5057191;28;20098;-68
2021/05/12 03:27:27;;;;;;;5.10;3.35;;;15.60;91.30;;;;;;5057267;28;20094;-68
2021/05/12 03:29:53;;;;;;;6.93;3.17;;;15.60;91.10;;;;;;5075266;28;20062;-69
2021/05/12 03:32:19;;;;;;;5.78;3.35;;;15.50;91.20;;;;;;5075132;28;20021;-70
2021/05/12 03:34:45;;;;;;;4.97;3.20;;;15.50;91.20;;;;;;5074806;28;20032;-68
2021/05/12 03:37:11;;;;;;;5.53;3.13;;;15.50;91.20;;;;;;5075107;28;20063;-69
2021/05/12 03:39:36;;;;;;;4.43;3.20;;;15.50;91.30;;;;;;5074810;28;20028;-69
2021/05/12 03:42:02;;;;;;;4.47;3.05;;;15.50;91.70;;;;;;5074957;28;20100;-69
2021/05/12 03:44:28;;;;;;;7.55;3.53;;;15.50;91.90;;;;;;5074853;28;20028;-68
2021/05/12 03:46:54;;;;;;;6.65;4.47;;;15.50;91.90;;;;;;5056786;28;20142;-69
2021/05/12 03:49:20;;;;;;;4.65;3.08;;;15.50;92.30;;;;;;5074873;28;20556;-69
2021/05/12 03:51:46;;;;;;;9.82;3.88;;;15.50;92.50;;;;;;5074373;28;20039;-69
2021/05/12 03:54:12;;;;;;;5.78;4.35;;;15.40;92.30;;;;;;5056671;28;20032;-69
2021/05/12 03:56:38;;;;;;;5.90;3.88;;;15.40;93.00;;;;;;5056644;28;20068;-69
2021/05/12 03:59:04;;;;;;;5.97;3.85;;;15.30;93.00;;;;;;5074594;28;20028;-68
2021/05/12 04:01:30;;;;;;;6.65;4.63;;;15.20;93.30;;;;;;5074540;28;20078;-70
2021/05/12 04:03:56;;;;;;;6.40;4.05;;;15.30;93.50;;;;;;5074488;28;20419;-69
2021/05/12 04:06:21;;;;;;;10.60;3.88;;;15.40;93.50;;;;;;5074438;28;20074;-69
2021/05/12 04:08:47;;;;;;;11.90;3.92;;;15.50;93.70;;;;;;5056432;28;20029;-69
2021/05/12 04:11:13;;;;;;;3.97;3.45;;;15.50;93.80;;;;;;5074509;28;20052;-70
2021/05/12 04:13:39;;;;;;;6.82;4.55;;;15.60;94.00;;;;;;5056365;28;20465;-70
2021/05/12 04:16:05;;;;;;;9.23;4.47;;;15.70;94.10;;;;;;5074216;28;20101;-71
2021/05/12 04:18:31;;;;;;;8.15;4.38;;;15.70;94.60;;;;;;5074124;28;20043;-70
2021/05/12 04:20:57;;;;;;;15.65;5.10;;;15.70;93.80;;;;;;5073767;28;20477;-70
2021/05/12 04:23:22;;;;;;;7.45;3.70;;;15.80;93.60;;;;;;5074032;28;20055;-71
2021/05/12 04:25:49;;;;;;;9.68;5.57;;;15.90;93.20;;;;;;5074256;28;20025;-69
2021/05/12 04:28:14;;;;;;;6.88;4.68;;;15.90;93.30;;;;;;5056028;28;20444;-69
2021/05/12 04:30:40;;;;;;;5.03;3.20;;;15.90;93.40;;;;;;5055984;28;20069;-69
2021/05/12 04:33:06;;;;;;;7.22;4.38;;;15.80;93.70;;;;;;5074173;28;20080;-69
2021/05/12 04:35:32;;;;;;;12.48;4.57;;;16.00;93.90;;;;;;5073844;28;20106;-69
2021/05/12 04:37:58;;;;;;;8.85;4.03;;;16.10;94.20;;;;;;5073781;28;20025;-69
2021/05/12 04:40:25;;;;;;;22.52;5.72;;;16.20;94.00;;;;;;5073812;28;20029;-69
2021/05/12 04:42:51;;;;;;;9.10;4.72;;;16.30;93.90;;;;;;5073760;28;20071;-69
2021/05/12 04:45:19;;;;;;;8.95;4.38;;;16.40;94.10;;;;;;5073611;28;20028;-70
2021/05/12 04:47:55;;;;;;;7.60;4.75;;;16.60;94.40;;;;;;5073592;28;20028;-70
2021/05/12 04:50:22;;;;;;;7.10;4.20;;;16.60;93.80;;;;;;5073663;28;20025;-70
2021/05/12 04:52:48;;;;;;;11.02;4.75;;;16.70;93.50;;;;;;5073302;28;20476;-70
2021/05/12 04:55:14;;;;;;;6.57;4.00;;;16.90;93.60;;;;;;5055575;28;20029;-70
2021/05/12 04:57:40;;;;;;;8.00;4.70;;;17.00;93.40;;;;;;5055187;28;20500;-70
2021/05/12 05:00:07;;;;;;;7.53;4.47;;;17.10;93.30;;;;;;5073512;28;20036;-70
2021/05/12 05:02:33;;;;;;;6.68;4.00;;;17.40;93.30;;;;;;5073415;28;20540;-70
2021/05/12 05:04:59;;;;;;;8.07;4.55;;;17.50;93.00;;;;;;5073301;28;20112;-70
2021/05/12 05:07:24;;;;;;;8.25;4.18;;;17.70;92.90;;;;;;5073329;28;20036;-71
2021/05/12 05:09:50;;;;;;;6.07;4.13;;;17.80;92.70;;;;;;5051684;28;20084;-70
2021/05/12 05:12:16;;;;;;;6.10;4.20;;;17.80;92.90;;;;;;5052007;28;20036;-70
2021/05/12 05:14:42;;;;;;;4.80;2.90;;;17.80;92.50;;;;;;5053205;28;20032;-71
2021/05/12 05:17:10;;;;;;;4.47;3.03;;;17.80;92.60;;;;;;5051928;28;20102;-69
2021/05/12 05:19:36;;;;;;;5.63;3.40;;;17.80;92.50;;;;;;5053133;28;20021;-69
2021/05/12 05:22:03;;;;;;;4.95;3.00;;;17.90;92.60;;;;;;5053350;28;20108;-71
2021/05/12 05:24:29;;;;;;;9.52;3.42;;;17.90;93.00;;;;;;5052968;28;20048;-69
2021/05/12 05:26:55;;;;;;;5.15;4.32;;;17.90;92.70;;;;;;5053018;28;20029;-69
2021/05/12 05:29:21;;;;;;;6.18;3.20;;;17.90;92.90;;;;;;5053249;28;20021;-69
2021/05/12 05:31:47;;;;;;;9.55;2.70;;;17.70;92.40;;;;;;5051556;28;20033;-70
2021/05/12 05:34:12;;;;;;;6.07;2.95;;;17.80;93.00;;;;;;5053202;28;20040;-69
2021/05/12 05:36:40;;;;;;;4.45;3.55;;;17.70;93.40;;;;;;5053146;28;20423;-68
2021/05/12 05:39:06;;;;;;;4.63;3.60;;;17.70;93.50;;;;;;5052036;28;20021;-69
2021/05/12 05:41:32;;;;;;;13.27;5.72;;;17.80;93.80;;;;;;5053109;28;20029;-69
2021/05/12 05:43:58;;;;;;;6.90;4.47;;;17.70;94.20;;;;;;5052459;28;20033;-69
2021/05/12 05:46:23;;;;;;;6.00;4.03;;;17.60;94.10;;;;;;5052727;28;20422;-71
2021/05/12 05:48:49;;;;;;;4.00;3.47;;;17.60;94.10;;;;;;5052319;28;20029;-70
2021/05/12 05:51:15;;;;;;;4.28;3.88;;;17.70;93.50;;;;;;5051401;28;20405;-70
2021/05/12 05:53:41;;;;;;;12.43;4.60;;;17.80;93.60;;;;;;5053005;28;20064;-68
2021/05/12 05:56:07;;;;;;;5.55;4.38;;;17.70;93.50;;;;;;5052483;28;20104;-70
2021/05/12 05:58:32;;;;;;;7.22;4.63;;;17.70;94.00;;;;;;5052550;28;20033;-70
2021/05/12 06:00:59;;;;;;;4.35;3.92;;;17.80;93.40;;;;;;5052639;28;20029;-71
2021/05/12 06:03:24;;;;;;;12.45;4.35;;;17.90;93.40;;;;;;5052453;28;20037;-71
2021/05/12 06:05:50;;;;;;;5.93;4.15;;;18.00;93.10;;;;;;5052519;28;20462;-69
2021/05/12 06:08:16;;;;;;;5.55;3.85;;;18.10;93.10;;;;;;5051193;28;20035;-70
2021/05/12 06:10:42;;;;;;;5.30;4.00;;;18.20;92.70;;;;;;5065035;28;20052;-70
2021/05/12 06:13:08;;;;;;;4.97;3.80;;;18.30;92.50;;;;;;5072543;28;20036;-71
2021/05/12 06:15:34;;;;;;;6.28;3.92;;;18.40;92.70;;;;;;5070549;28;20488;-70
2021/05/12 06:18:00;;;;;;;6.55;4.07;;;18.40;92.70;;;;;;5071538;28;20463;-69
2021/05/12 06:20:26;;;;;;;7.28;4.18;;;18.40;92.30;;;;;;5072150;28;20033;-70
2021/05/12 06:23:00;;;;;;;6.93;4.80;;;18.50;92.80;;;;;;5072452;28;20457;-70
2021/05/12 06:25:26;;;;;;;6.38;4.75;;;18.40;92.70;;;;;;5072331;28;20454;-69
2021/05/12 06:27:52;;;;;;;10.18;4.85;;;18.40;92.30;;;;;;5072348;28;20058;-70
2021/05/12 06:30:18;;;;;;;7.15;4.18;;;18.50;92.70;;;;;;5071762;28;20599;-69
2021/05/12 06:32:46;;;;;;;6.13;4.43;;;18.50;93.50;;;;;;5072383;28;20063;-70
2021/05/12 06:35:12;;;;;;;4.28;3.88;;;18.40;93.20;;;;;;5072274;28;20032;-71
2021/05/12 06:37:38;;;;;;;5.97;4.25;;;18.30;93.70;;;;;;5072287;28;20069;-71
2021/05/12 06:40:05;;;;;;;7.22;4.00;;;18.20;94.00;;;;;;5069756;28;20036;-74
2021/05/12 06:42:31;;;;;;;6.88;4.22;;;18.20;94.70;;;;;;5054004;28;20033;-70
2021/05/12 06:44:57;;;;;;;6.93;5.03;;;18.10;94.20;;;;;;5072171;28;20036;-69
2021/05/12 06:47:22;;;;;;;7.18;4.72;;;18.20;94.50;;;;;;5054138;28;20465;-69
2021/05/12 06:49:48;;;;;;;4.30;3.78;;;18.40;94.40;;;;;;5072980;28;20104;-69
2021/05/12 06:52:14;;;;;;;8.60;3.88;;;18.50;93.00;;;;;;5075980;28;20039;-69
2021/05/12 06:55:30;;;;;;;6.80;3.75;;;18.40;92.40;;;;;;5057511;28;20040;-69
2021/05/12 06:57:55;;;;;;;5.05;3.88;;;18.40;92.70;;;;;;5075736;28;20040;-70
2021/05/12 07:00:22;;;;;;;14.00;4.10;;;18.50;92.90;;;;;;5075345;28;20127;-69
2021/05/12 07:02:48;;;;;;;4.85;3.47;;;18.60;93.10;;;;;;5057697;28;20025;-68
2021/05/12 07:05:19;;;;;;;5.35;3.70;;;18.80;92.20;;;;;;5075441;28;20480;-68
2021/05/12 07:07:45;;;;;;;4.38;3.60;;;19.00;92.50;;;;;;5075593;28;20043;-69
2021/05/12 07:10:13;;;;;;;3.88;3.47;;;19.30;91.80;;;;;;5053743;28;20409;-71
2021/05/12 07:12:39;;;;;;;7.90;3.58;;;19.50;90.70;;;;;;5055320;28;20024;-69
2021/05/12 07:15:07;;;;;;;5.75;3.38;;;;;;;;;;5055062;28;20032;-69
2021/05/12 07:17:33;;;;;;;6.22;4.00;;;19.90;91.20;;;;;;5055521;28;20029;-73
2021/05/12 07:19:59;;;;;;;6.38;3.78;;;20.10;90.60;;;;;;5055130;28;20050;-71
2021/05/12 07:22:25;;;;;;;7.07;4.38;;;20.20;88.40;;;;;;5054845;28;20104;-70
2021/05/12 07:24:52;;;;;;;5.78;3.63;;;20.40;88.90;;;;;;5055052;28;20037;-70
2021/05/12 07:27:18;;;;;;;5.32;3.30;;;20.70;89.30;;;;;;5055135;28;20036;-69
2021/05/12 07:29:44;;;;;;;5.53;3.90;;;21.10;89.70;;;;;;5054630;28;20362;-72
2021/05/12 07:32:10;;;;;;;4.82;3.35;;;21.30;88.70;;;;;;5055088;28;20033;-71
2021/05/12 07:34:36;;;;;;;10.45;3.78;;;21.50;86.90;;;;;;5055035;28;20040;-71
2021/05/12 07:37:03;;;;;;;3.88;3.20;;;21.60;84.50;;;;;;5053532;28;20026;-72
2021/05/12 07:39:31;;;;;;;4.72;2.90;;;;;;;;;;5053031;28;20029;-68
2021/05/12 07:42:01;;;;;;;6.32;3.33;;;;;;;;;;5052649;28;20021;-69
2021/05/12 07:44:28;;;;;;;3.85;3.25;;;;;;;;;;5054531;28;20412;-70
2021/05/12 07:46:54;;;;;;;8.55;3.22;;;;;;;;;;5054662;28;20053;-69
2021/05/12 07:49:20;;;;;;;4.13;2.72;;;;;;;;;;5054700;28;20025;-71
2021/05/12 07:51:46;;;;;;;6.32;3.28;;;;;;;;;;5054718;28;20057;-69
2021/05/12 07:54:12;;;;;;;6.00;3.78;;;;;;;;;;5054389;28;20057;-69
2021/05/12 07:56:39;;;;;;;5.50;3.13;;;;;;;;;;5053901;28;20027;-69
2021/05/12 07:59:05;;;;;;;5.32;2.90;;;;;;;;;;5054140;28;20025;-70
2021/05/12 08:01:38;;;;;;;8.85;3.22;;;;;;;;;;5052309;28;20116;-71
2021/05/12 08:04:05;;;;;;;5.72;3.55;;;;;;;;;;5051497;28;20139;-70
2021/05/12 08:06:31;;;;;;;4.30;2.33;;;;;;;;;;5054021;28;20060;-71
2021/05/12 08:08:57;;;;;;;7.55;2.80;;;;;;;;;;5053726;28;20370;-71
2021/05/12 08:11:24;;;;;;;3.22;2.70;;;;;;;;;;5052508;28;20052;-72
2021/05/12 08:13:50;;;;;;;3.55;2.58;;;;;;;;;;5053536;28;20433;-71
2021/05/12 08:16:16;;;;;;;3.53;2.60;;;;;;;;;;5052330;28;20025;-71
2021/05/12 08:18:42;;;;;;;3.83;2.88;;;24.20;79.30;;;;;;5054129;28;20075;-71
2021/05/12 08:21:08;;;;;;;4.00;2.47;;;24.30;78.20;;;;;;5052544;28;20495;-69
2021/05/12 08:23:34;;;;;;;5.65;2.10;;;24.40;74.90;;;;;;5053359;28;20036;-70
2021/05/12 08:26:00;;;;;;;6.13;2.50;;;24.60;72.90;;;;;;5053498;28;20104;-70
2021/05/12 08:28:27;;;;;;;4.60;2.95;;;24.60;75.30;;;;;;5052336;28;20029;-71
2021/05/12 08:30:56;;;;;;;6.90;2.97;;;24.50;72.90;;;;;;5053608;28;20021;-71
2021/05/12 08:33:22;;;;;;;5.00;2.65;;;24.00;75.00;;;;;;5052344;28;20537;-71
2021/05/12 08:35:48;;;;;;;8.50;2.25;;;23.90;76.70;;;;;;5051362;28;20370;-71
2021/05/12 08:38:19;;;;;;;4.93;1.90;;;24.00;76.20;;;;;;5053723;28;20039;-73
2021/05/12 08:40:46;;;;;;;6.68;2.30;;;24.20;74.30;;;;;;5052072;28;20029;-72
2021/05/12 08:43:14;;;;;;;3.83;2.42;;;24.30;74.10;;;;;;5054212;28;20025;-71
2021/05/12 08:45:44;;;;;;;3.72;2.15;;;24.20;73.10;;;;;;5052199;28;20036;-71
2021/05/12 08:48:15;;;;;;;2.08;1.85;;;24.10;71.50;;;;;;5052242;28;20079;-71
2021/05/12 08:50:41;;;;;;;7.07;2.25;;;24.20;72.10;;;;;;5053612;28;20037;-71
2021/05/12 08:53:07;;;;;;;5.43;2.80;;;24.20;72.30;;;;;;5053461;28;20025;-70
2021/05/12 08:55:34;;;;;;;4.13;2.55;;;24.30;73.60;;;;;;5053066;28;20025;-70
2021/05/12 08:58:00;;;;;;;5.20;2.75;;;24.20;72.30;;;;;;5053689;28;20025;-70
2021/05/12 09:00:27;;;;;;;4.28;2.50;;;23.90;72.10;;;;;;5050917;28;20089;-69
2021/05/12 09:02:53;;;;;;;4.18;2.40;;;23.70;73.50;;;;;;5052162;28;20120;-71
2021/05/12 09:05:20;;;;;;;3.28;2.20;;;23.70;73.90;;;;;;5053187;28;20037;-70
2021/05/12 09:07:46;;;;;;;3.47;2.28;;;23.70;73.60;;;;;;5051226;28;20029;-71
2021/05/12 09:10:14;;;;;;;3.92;2.33;;;23.60;75.10;;;;;;5061434;28;20084;-71
2021/05/12 09:12:48;;;;;;;3.10;2.35;;;23.60;75.10;;;;;;5073263;28;20048;-70
2021/05/12 09:15:18;;;;;;;4.45;2.50;;;23.40;73.40;;;;;;5073310;28;20032;-69
2021/05/12 09:17:45;;;;;;;3.97;2.30;;;23.30;75.00;;;;;;5055409;28;20028;-69
2021/05/12 09:20:20;;;;;;;3.47;2.40;;;23.30;75.60;;;;;;5072673;28;20039;-69
2021/05/12 09:23:03;;;;;;;5.68;2.42;;;23.10;75.70;;;;;;5071970;28;20052;-69
2021/05/12 09:25:33;;;;;;;12.00;2.45;;;23.00;76.00;;;;;;5073038;28;20530;-70
2021/05/12 09:28:14;;;;;;;4.22;2.40;;;22.90;76.00;;;;;;5073018;28;20482;-69
2021/05/12 09:30:42;;;;;;;4.13;2.30;;;22.80;76.50;;;;;;5073147;28;20029;-71
2021/05/12 09:33:17;;;;;;;4.40;2.50;;;22.70;77.40;;;;;;5073073;28;20055;-71
2021/05/12 09:35:45;;;;;;;6.97;2.70;;;22.60;76.90;;;;;;5073117;28;20039;-69
2021/05/12 09:38:19;;;;;;;6.13;2.67;;;22.60;77.10;;;;;;5072945;28;20059;-69
2021/05/12 09:40:58;;;;;;;4.57;2.88;;;22.60;77.70;;;;;;5072930;28;20028;-70
2021/05/12 09:43:29;;;;;;;5.05;2.50;;;22.40;79.00;;;;;;5072884;28;20021;-69
2021/05/12 09:46:33;;;;;;;5.47;2.47;;;22.30;79.10;;;;;;5054911;28;20040;-69
2021/05/12 09:48:59;;;;;;;6.50;3.05;;;22.40;78.70;;;;;;5073118;28;20035;-69
2021/05/12 09:51:27;;;;;;;4.90;2.90;;;22.50;78.60;;;;;;5055025;28;20492;-69
2021/05/12 09:54:03;;;;;;;5.65;2.40;;;22.60;78.50;;;;;;5072768;28;20028;-69
2021/05/12 09:56:35;;;;;;;4.30;2.15;;;23.00;78.30;;;;;;5072722;28;20028;-69
2021/05/12 09:59:08;;;;;;;3.80;2.30;;;23.00;79.10;;;;;;5070620;28;20816;-75
2021/05/12 10:01:42;;;;;;;3.55;2.47;;;23.20;77.80;;;;;;5053775;28;20039;-69
2021/05/12 10:04:28;;;;;;;3.85;2.58;;;23.30;78.60;;;;;;5072306;28;20033;-70
2021/05/12 10:06:55;;;;;;;6.68;2.78;;;23.40;77.50;;;;;;5072561;28;20028;-69
2021/05/12 10:09:23;;;;;;;4.25;2.22;;;23.40;77.20;;;;;;5072240;28;20036;-69
2021/05/12 10:12:07;;;;;;;4.90;3.00;;;23.40;78.60;;;;;;5072603;28;20103;-71
2021/05/12 10:14:35;;;;;;;5.55;2.92;;;23.20;77.40;;;;;;5072497;28;20024;-68
2021/05/12 10:17:06;;;;;;;6.50;3.00;;;23.00;76.90;;;;;;5072552;28;20385;-70
2021/05/12 10:19:33;;;;;;;4.68;2.55;;;23.10;78.70;;;;;;5072315;28;20078;-69
2021/05/12 10:22:00;;;;;;;5.97;3.00;;;22.90;79.20;;;;;;5072536;28;20028;-69
2021/05/12 10:24:27;;;;;;;8.05;2.53;;;23.00;79.70;;;;;;5072508;28;20759;-69
2021/05/12 10:26:53;;;;;;;3.35;2.53;;;23.10;78.40;;;;;;5075636;28;20025;-69
2021/05/12 10:29:21;;;;;;;4.90;2.85;;;23.30;78.90;;;;;;5075647;28;20028;-69
2021/05/12 10:31:48;;;;;;;11.38;3.13;;;23.50;77.90;;;;;;5058372;28;20412;-69
2021/05/12 10:34:36;;;;;;;3.63;2.30;;;23.50;76.80;;;;;;5076169;28;20106;-70
2021/05/12 10:37:22;;;;;;;3.17;2.45;;;24.00;76.70;;;;;;5076138;28;20024;-69
2021/05/12 10:39:53;;;;;;;3.90;2.10;;;24.30;76.00;;;;;;5075893;28;20036;-70
2021/05/12 10:42:37;;;;;;;;;;;24.60;75.40;;;;;;5076466;28;20461;-69
2021/05/12 10:45:04;;;;;;;2.55;2.22;;;24.40;75.60;;;;;;5075785;28;19923;-70
2021/05/12 10:47:37;;;;;;;2.95;2.05;;;24.30;75.70;;;;;;5075784;28;20025;-69
2021/05/12 10:50:04;;;;;;;4.70;2.00;;;24.10;76.90;;;;;;5075817;28;20029;-71
2021/05/12 10:52:30;;;;;;;3.40;2.70;;;23.90;77.60;;;;;;5075864;28;20017;-71
2021/05/12 10:54:56;;;;;;;4.28;2.20;;;23.60;78.30;;;;;;5075680;28;20158;-70
2021/05/12 10:57:48;;;;;;;3.28;2.17;;;23.60;77.60;;;;;;5057094;28;20035;-69
2021/05/12 11:00:17;;;;;;;5.00;1.95;;;23.60;79.20;;;;;;5075530;28;20107;-70
2021/05/12 11:03:03;;;;;;;3.20;2.47;;;23.40;78.10;;;;;;5057582;28;20021;-71
2021/05/12 11:05:42;;;;;;;2.55;2.33;;;23.40;79.80;;;;;;5074648;28;20060;-70
2021/05/12 11:08:15;;;;;;;4.40;2.50;;;23.30;79.60;;;;;;5075410;28;20025;-70
2021/05/12 11:10:57;;;;;;;2.67;2.20;;;23.10;79.90;;;;;;5074920;28;20056;-70
2021/05/12 11:13:26;;;;;;;4.63;2.78;;;22.90;79.50;;;;;;5075117;28;20380;-71
2021/05/12 11:16:04;;;;;;;10.48;2.80;;;22.60;85.80;;;;;;5057233;28;20527;-70
2021/05/12 11:18:41;;;;;;;4.18;2.28;;;22.10;86.80;;;;;;5075299;28;20016;-71
2021/05/12 11:21:16;;;;;;;12.88;1.92;;;21.90;87.40;;;;;;5075261;28;20024;-70
2021/05/12 11:24:00;;;;;;;7.82;1.77;;;22.00;86.10;;;;;;5074992;28;20082;-69
2021/05/12 11:26:45;;;;;;;1.98;1.45;;;22.40;84.30;;;;;;5075006;28;20085;-70
2021/05/12 11:32:09;;;;;;;1.40;0.95;;;22.10;79.00;;;;;;5074911;28;20051;-71
2021/05/12 11:34:37;;;;;;;3.03;1.08;;;21.80;80.70;;;;;;5056618;28;20097;-70
2021/05/12 11:37:19;;;;;;;2.13;0.93;;;21.60;82.20;;;;;;5055629;28;20389;-71
2021/05/12 11:39:47;;;;;;;1.10;1.00;;;21.80;80.40;;;;;;5057007;28;20032;-70
2021/05/12 11:42:25;;;;;;;1.90;0.70;;;22.10;80.10;;;;;;5074882;28;20028;-70
2021/05/12 11:45:05;;;;;;;4.97;1.00;;;22.30;77.70;;;;;;5074283;28;20086;-70
2021/05/12 11:47:32;;;;;;;1.08;0.95;;;22.60;75.30;;;;;;5074743;28;20029;-70
2021/05/12 11:49:58;;;;;;;0.70;0.70;;;22.30;75.20;;;;;;5074753;28;20020;-69
2021/05/12 11:52:46;;;;;;;1.58;1.15;;;21.70;76.60;;;;;;5074472;28;20028;-71
2021/05/12 11:55:12;;;;;;;1.98;0.80;;;21.30;78.10;;;;;;5056661;28;20033;-70
2021/05/12 11:57:38;;;;;;;1.30;0.70;;;21.30;79.20;;;;;;5074274;28;20078;-71
2021/05/12 12:00:14;;;;;;;0.60;0.60;;;21.20;79.90;;;;;;5056460;28;20027;-70
2021/05/12 12:02:41;;;;;;;0.90;0.90;;;;;;;;;;5074598;28;20029;-70
2021/05/12 12:05:09;;;;;;;0.73;0.65;;;;;;;;;;5074348;28;20036;-71
2021/05/12 12:07:35;;;;;;;2.33;1.02;;;;;;;;;;5056451;28;20044;-70
2021/05/12 12:10:04;;;;;;;2.35;1.30;;;20.00;85.30;;;;;;5073814;28;20131;-69
2021/05/12 12:12:30;;;;;;;1.23;0.90;;;19.90;86.50;;;;;;5073975;28;20486;-70
2021/05/12 12:15:10;;;;;;;2.67;1.40;;;19.60;87.70;;;;;;5074312;28;20488;-72
2021/05/12 12:17:36;;;;;;;1.52;1.15;;;19.50;89.00;;;;;;5056375;28;20024;-70
2021/05/12 12:20:05;;;;;;;2.47;1.50;;;19.40;89.40;;;;;;5074162;28;20029;-69
2021/05/12 12:22:31;;;;;;;5.90;1.15;;;19.30;88.90;;;;;;5074203;28;20111;-71
2021/05/12 12:25:11;;;;;;;1.52;1.10;;;19.20;89.70;;;;;;5055945;28;20401;-68
2021/05/12 12:27:41;;;;;;;1.95;1.25;;;19.00;89.50;;;;;;5056076;28;20162;-68
2021/05/12 12:30:10;;;;;;;1.80;0.80;;;18.90;89.30;;;;;;5074009;28;20473;-69
2021/05/12 12:32:36;;;;;;;2.22;1.08;;;18.80;90.00;;;;;;5073680;28;20020;-69
2021/05/12 12:35:03;;;;;;;1.13;0.77;;;18.80;89.30;;;;;;5055542;28;20037;-71
2021/05/12 12:37:36;;;;;;;3.55;0.75;;;18.80;90.20;;;;;;5073827;28;20084;-67
2021/05/12 12:40:06;;;;;;;2.47;1.10;;;18.60;90.50;;;;;;5055908;28;20137;-68
2021/05/12 12:42:35;;;;;;;3.55;1.33;;;18.40;91.20;;;;;;5073730;28;20020;-68
2021/05/12 12:45:06;;;;;;;1.20;1.10;;;18.10;92.00;;;;;;5073701;28;20025;-69
2021/05/12 12:47:32;;;;;;;1.10;1.05;;;17.80;93.20;;;;;;5073761;28;20526;-70
2021/05/12 12:50:06;;;;;;;1.10;1.08;;;17.60;94.30;;;;;;5073805;28;20028;-68
2021/05/12 12:52:39;;;;;;;4.22;1.40;;;17.30;95.50;;;;;;5073144;28;20078;-69
2021/05/12 12:55:10;;;;;;;2.00;1.50;;;17.10;97.30;;;;;;5055555;28;20040;-68
2021/05/12 12:58:05;;;;;;;1.52;1.25;;;16.90;98.80;;;;;;5073505;28;20029;-70
2021/05/12 13:00:32;;;;;;;2.25;1.40;;;16.80;99.90;;;;;;5050446;28;20032;-69
2021/05/12 13:03:06;;;;;;;1.98;1.60;;;16.40;99.90;;;;;;5055539;28;20538;-70